sensor_id;sensor_type;location;lat;lon;timestamp;P1;durP1;ratioP1;P2;durP2;ratioP2
67195;SDS011;54122;53.538;49.366;2022-12-16T00:01:49;26.80;;;12.02;;
67195;SDS011;54122;53.538;49.366;2022-12-16T00:04:20;30.25;;;13.65;;
67195;SDS011;54122;53.538;49.366;2022-12-16T00:06:52;33.78;;;13.75;;
67195;SDS011;54122;53.538;49.366;2022-12-16T00:09:28;26.13;;;11.43;;
67195;SDS011;54122;53.538;49.366;2022-12-16T00:12:00;23.33;;;9.27;;
67195;SDS011;54122;53.538;49.366;2022-12-16T00:14:31;24.27;;;10.23;;
67195;SDS011;54122;53.538;49.366;2022-12-16T00:17:03;17.92;;;9.38;;
67195;SDS011;54122;53.538;49.366;2022-12-16T00:19:34;24.33;;;10.25;;
67195;SDS011;54122;53.538;49.366;2022-12-16T00:22:06;23.50;;;8.65;;
67195;SDS011;54122;53.538;49.366;2022-12-16T00:24:37;23.42;;;9.38;;
67195;SDS011;54122;53.538;49.366;2022-12-16T00:27:09;19.48;;;8.63;;
67195;SDS011;54122;53.538;49.366;2022-12-16T00:29:40;24.10;;;9.85;;
67195;SDS011;54122;53.538;49.366;2022-12-16T00:32:11;21.15;;;8.82;;
67195;SDS011;54122;53.538;49.366;2022-12-16T00:34:43;18.30;;;8.23;;
67195;SDS011;54122;53.538;49.366;2022-12-16T00:37:14;20.67;;;8.43;;
67195;SDS011;54122;53.538;49.366;2022-12-16T00:39:46;18.10;;;8.02;;
67195;SDS011;54122;53.538;49.366;2022-12-16T00:42:17;22.67;;;8.20;;
67195;SDS011;54122;53.538;49.366;2022-12-16T00:44:48;20.20;;;8.05;;
67195;SDS011;54122;53.538;49.366;2022-12-16T00:47:20;21.40;;;7.72;;
67195;SDS011;54122;53.538;49.366;2022-12-16T00:49:51;21.88;;;7.13;;
67195;SDS011;54122;53.538;49.366;2022-12-16T00:52:23;15.68;;;6.38;;
67195;SDS011;54122;53.538;49.366;2022-12-16T00:54:54;18.75;;;7.60;;
67195;SDS011;54122;53.538;49.366;2022-12-16T00:57:26;22.85;;;7.03;;
67195;SDS011;54122;53.538;49.366;2022-12-16T00:59:57;19.88;;;7.32;;
67195;SDS011;54122;53.538;49.366;2022-12-16T01:02:28;23.52;;;7.18;;
67195;SDS011;54122;53.538;49.366;2022-12-16T01:05:00;19.67;;;6.63;;
67195;SDS011;54122;53.538;49.366;2022-12-16T01:07:32;15.98;;;5.65;;
67195;SDS011;54122;53.538;49.366;2022-12-16T01:10:04;17.77;;;6.68;;
67195;SDS011;54122;53.538;49.366;2022-12-16T01:12:37;12.05;;;6.30;;
67195;SDS011;54122;53.538;49.366;2022-12-16T01:15:09;17.90;;;5.80;;
67195;SDS011;54122;53.538;49.366;2022-12-16T01:17:42;15.60;;;6.07;;
67195;SDS011;54122;53.538;49.366;2022-12-16T01:20:14;18.55;;;6.90;;
67195;SDS011;54122;53.538;49.366;2022-12-16T01:22:46;14.35;;;5.97;;
67195;SDS011;54122;53.538;49.366;2022-12-16T01:25:17;15.43;;;6.13;;
67195;SDS011;54122;53.538;49.366;2022-12-16T01:27:49;12.45;;;5.53;;
67195;SDS011;54122;53.538;49.366;2022-12-16T01:30:20;18.83;;;5.95;;
67195;SDS011;54122;53.538;49.366;2022-12-16T01:32:52;23.67;;;8.68;;
67195;SDS011;54122;53.538;49.366;2022-12-16T01:35:24;59.92;;;22.80;;
67195;SDS011;54122;53.538;49.366;2022-12-16T01:37:55;34.60;;;11.95;;
67195;SDS011;54122;53.538;49.366;2022-12-16T01:40:26;104.20;;;27.52;;
67195;SDS011;54122;53.538;49.366;2022-12-16T01:42:59;96.95;;;26.30;;
67195;SDS011;54122;53.538;49.366;2022-12-16T01:45:34;106.50;;;28.02;;
67195;SDS011;54122;53.538;49.366;2022-12-16T01:48:17;187.68;;;47.95;;
67195;SDS011;54122;53.538;49.366;2022-12-16T01:51:07;97.53;;;27.58;;
67195;SDS011;54122;53.538;49.366;2022-12-16T01:54:04;83.32;;;22.55;;
67195;SDS011;54122;53.538;49.366;2022-12-16T01:56:40;37.22;;;13.48;;
67195;SDS011;54122;53.538;49.366;2022-12-16T01:59:15;70.15;;;21.17;;
67195;SDS011;54122;53.538;49.366;2022-12-16T02:01:48;81.25;;;24.95;;
67195;SDS011;54122;53.538;49.366;2022-12-16T02:04:20;42.88;;;15.05;;
67195;SDS011;54122;53.538;49.366;2022-12-16T02:06:51;22.13;;;10.00;;
67195;SDS011;54122;53.538;49.366;2022-12-16T02:09:23;64.20;;;18.13;;
67195;SDS011;54122;53.538;49.366;2022-12-16T02:21:03;20.55;;;8.38;;
67195;SDS011;54122;53.538;49.366;2022-12-16T02:41:58;32.42;;;9.48;;
67195;SDS011;54122;53.538;49.366;2022-12-16T02:44:34;35.55;;;13.02;;
67195;SDS011;54122;53.538;49.366;2022-12-16T02:47:15;22.25;;;8.27;;
67195;SDS011;54122;53.538;49.366;2022-12-16T02:49:48;34.78;;;13.10;;
67195;SDS011;54122;53.538;49.366;2022-12-16T02:52:22;20.45;;;6.70;;
67195;SDS011;54122;53.538;49.366;2022-12-16T02:54:57;11.38;;;5.38;;
67195;SDS011;54122;53.538;49.366;2022-12-16T02:57:40;10.73;;;4.60;;
67195;SDS011;54122;53.538;49.366;2022-12-16T03:00:39;19.35;;;5.32;;
67195;SDS011;54122;53.538;49.366;2022-12-16T03:03:27;12.13;;;5.03;;
67195;SDS011;54122;53.538;49.366;2022-12-16T03:06:07;18.85;;;6.22;;
67195;SDS011;54122;53.538;49.366;2022-12-16T03:08:44;17.70;;;5.80;;
67195;SDS011;54122;53.538;49.366;2022-12-16T03:11:21;19.25;;;6.28;;
67195;SDS011;54122;53.538;49.366;2022-12-16T03:13:56;9.55;;;4.82;;
67195;SDS011;54122;53.538;49.366;2022-12-16T03:16:31;11.27;;;4.40;;
67195;SDS011;54122;53.538;49.366;2022-12-16T03:19:04;11.65;;;3.53;;
67195;SDS011;54122;53.538;49.366;2022-12-16T03:21:44;18.08;;;5.28;;
67195;SDS011;54122;53.538;49.366;2022-12-16T03:24:26;14.60;;;5.38;;
67195;SDS011;54122;53.538;49.366;2022-12-16T03:32:31;12.20;;;4.03;;
67195;SDS011;54122;53.538;49.366;2022-12-16T03:35:19;10.23;;;3.88;;
67195;SDS011;54122;53.538;49.366;2022-12-16T03:37:53;10.48;;;3.90;;
67195;SDS011;54122;53.538;49.366;2022-12-16T03:40:27;17.10;;;4.38;;
67195;SDS011;54122;53.538;49.366;2022-12-16T03:43:01;21.98;;;7.97;;
67195;SDS011;54122;53.538;49.366;2022-12-16T03:45:37;16.67;;;4.65;;
67195;SDS011;54122;53.538;49.366;2022-12-16T03:48:11;9.07;;;4.20;;
67195;SDS011;54122;53.538;49.366;2022-12-16T03:50:43;10.88;;;4.10;;
67195;SDS011;54122;53.538;49.366;2022-12-16T03:53:15;11.80;;;4.38;;
67195;SDS011;54122;53.538;49.366;2022-12-16T03:55:46;12.15;;;4.55;;
67195;SDS011;54122;53.538;49.366;2022-12-16T03:58:18;12.77;;;5.05;;
67195;SDS011;54122;53.538;49.366;2022-12-16T04:00:50;9.60;;;3.67;;
67195;SDS011;54122;53.538;49.366;2022-12-16T04:03:21;14.25;;;4.25;;
67195;SDS011;54122;53.538;49.366;2022-12-16T04:05:53;13.52;;;4.45;;
67195;SDS011;54122;53.538;49.366;2022-12-16T04:08:24;9.73;;;4.05;;
67195;SDS011;54122;53.538;49.366;2022-12-16T04:10:56;32.95;;;5.00;;
67195;SDS011;54122;53.538;49.366;2022-12-16T04:13:46;14.25;;;4.90;;
67195;SDS011;54122;53.538;49.366;2022-12-16T04:16:36;13.52;;;5.15;;
67195;SDS011;54122;53.538;49.366;2022-12-16T04:19:27;20.02;;;5.57;;
67195;SDS011;54122;53.538;49.366;2022-12-16T04:22:28;17.80;;;6.20;;
67195;SDS011;54122;53.538;49.366;2022-12-16T04:25:23;27.70;;;9.65;;
67195;SDS011;54122;53.538;49.366;2022-12-16T04:27:58;21.27;;;6.80;;
67195;SDS011;54122;53.538;49.366;2022-12-16T04:30:30;29.25;;;7.35;;
67195;SDS011;54122;53.538;49.366;2022-12-16T04:33:11;25.58;;;9.30;;
67195;SDS011;54122;53.538;49.366;2022-12-16T04:36:02;28.85;;;7.85;;
67195;SDS011;54122;53.538;49.366;2022-12-16T04:38:55;29.90;;;7.07;;
67195;SDS011;54122;53.538;49.366;2022-12-16T04:41:45;28.45;;;7.70;;
67195;SDS011;54122;53.538;49.366;2022-12-16T04:44:42;28.98;;;7.03;;
67195;SDS011;54122;53.538;49.366;2022-12-16T04:47:32;36.03;;;8.70;;
67195;SDS011;54122;53.538;49.366;2022-12-16T04:50:22;38.67;;;8.95;;
67195;SDS011;54122;53.538;49.366;2022-12-16T04:53:11;33.17;;;9.95;;
67195;SDS011;54122;53.538;49.366;2022-12-16T04:56:01;32.38;;;8.85;;
67195;SDS011;54122;53.538;49.366;2022-12-16T04:58:51;53.88;;;17.90;;
67195;SDS011;54122;53.538;49.366;2022-12-16T05:01:44;33.72;;;11.20;;
67195;SDS011;54122;53.538;49.366;2022-12-16T05:04:34;42.15;;;9.65;;
67195;SDS011;54122;53.538;49.366;2022-12-16T05:07:24;31.05;;;9.73;;
67195;SDS011;54122;53.538;49.366;2022-12-16T05:10:14;30.23;;;8.60;;
67195;SDS011;54122;53.538;49.366;2022-12-16T05:13:04;33.35;;;8.82;;
67195;SDS011;54122;53.538;49.366;2022-12-16T05:15:53;35.90;;;8.65;;
67195;SDS011;54122;53.538;49.366;2022-12-16T05:18:43;34.33;;;8.45;;
67195;SDS011;54122;53.538;49.366;2022-12-16T05:21:33;30.50;;;9.15;;
67195;SDS011;54122;53.538;49.366;2022-12-16T05:24:23;44.83;;;8.70;;
67195;SDS011;54122;53.538;49.366;2022-12-16T05:27:12;34.80;;;8.32;;
67195;SDS011;54122;53.538;49.366;2022-12-16T05:30:02;45.05;;;8.77;;
67195;SDS011;54122;53.538;49.366;2022-12-16T05:32:52;30.77;;;7.60;;
67195;SDS011;54122;53.538;49.366;2022-12-16T05:35:42;36.22;;;8.30;;
67195;SDS011;54122;53.538;49.366;2022-12-16T05:38:32;24.50;;;7.30;;
67195;SDS011;54122;53.538;49.366;2022-12-16T05:41:22;32.42;;;7.22;;
67195;SDS011;54122;53.538;49.366;2022-12-16T05:44:11;25.45;;;7.85;;
67195;SDS011;54122;53.538;49.366;2022-12-16T05:47:01;27.73;;;8.07;;
67195;SDS011;54122;53.538;49.366;2022-12-16T05:49:52;25.85;;;7.45;;
67195;SDS011;54122;53.538;49.366;2022-12-16T05:52:49;28.95;;;7.93;;
67195;SDS011;54122;53.538;49.366;2022-12-16T05:55:40;39.03;;;8.13;;
67195;SDS011;54122;53.538;49.366;2022-12-16T06:01:22;21.90;;;6.97;;
67195;SDS011;54122;53.538;49.366;2022-12-16T06:04:13;39.05;;;11.52;;
67195;SDS011;54122;53.538;49.366;2022-12-16T06:07:03;26.80;;;7.72;;
67195;SDS011;54122;53.538;49.366;2022-12-16T06:10:07;25.25;;;8.07;;
67195;SDS011;54122;53.538;49.366;2022-12-16T06:12:57;27.45;;;9.70;;
67195;SDS011;54122;53.538;49.366;2022-12-16T06:15:47;26.85;;;7.07;;
67195;SDS011;54122;53.538;49.366;2022-12-16T06:18:38;32.13;;;7.22;;
67195;SDS011;54122;53.538;49.366;2022-12-16T06:21:28;21.35;;;6.25;;
67195;SDS011;54122;53.538;49.366;2022-12-16T06:24:18;32.63;;;8.13;;
67195;SDS011;54122;53.538;49.366;2022-12-16T06:27:08;20.20;;;6.90;;
67195;SDS011;54122;53.538;49.366;2022-12-16T06:29:58;25.63;;;6.88;;
67195;SDS011;54122;53.538;49.366;2022-12-16T06:32:48;22.48;;;7.40;;
67195;SDS011;54122;53.538;49.366;2022-12-16T06:35:38;28.95;;;7.35;;
67195;SDS011;54122;53.538;49.366;2022-12-16T06:38:28;22.17;;;6.10;;
67195;SDS011;54122;53.538;49.366;2022-12-16T06:41:18;23.45;;;7.25;;
67195;SDS011;54122;53.538;49.366;2022-12-16T06:44:08;26.83;;;8.57;;
67195;SDS011;54122;53.538;49.366;2022-12-16T06:46:58;25.83;;;9.43;;
67195;SDS011;54122;53.538;49.366;2022-12-16T06:49:48;25.85;;;6.97;;
67195;SDS011;54122;53.538;49.366;2022-12-16T06:52:40;29.77;;;8.60;;
67195;SDS011;54122;53.538;49.366;2022-12-16T06:55:33;31.40;;;7.93;;
67195;SDS011;54122;53.538;49.366;2022-12-16T06:58:23;44.42;;;8.93;;
67195;SDS011;54122;53.538;49.366;2022-12-16T07:01:12;41.13;;;9.30;;
67195;SDS011;54122;53.538;49.366;2022-12-16T07:04:02;27.35;;;7.93;;
67195;SDS011;54122;53.538;49.366;2022-12-16T07:06:52;32.03;;;8.85;;
67195;SDS011;54122;53.538;49.366;2022-12-16T07:09:41;34.50;;;8.50;;
67195;SDS011;54122;53.538;49.366;2022-12-16T07:12:31;18.08;;;6.03;;
67195;SDS011;54122;53.538;49.366;2022-12-16T07:15:21;19.80;;;6.35;;
67195;SDS011;54122;53.538;49.366;2022-12-16T07:18:12;22.15;;;6.45;;
67195;SDS011;54122;53.538;49.366;2022-12-16T07:21:01;21.33;;;6.55;;
67195;SDS011;54122;53.538;49.366;2022-12-16T07:23:51;18.08;;;5.70;;
67195;SDS011;54122;53.538;49.366;2022-12-16T07:26:43;18.13;;;5.53;;
67195;SDS011;54122;53.538;49.366;2022-12-16T07:29:39;18.75;;;5.22;;
67195;SDS011;54122;53.538;49.366;2022-12-16T07:32:28;19.88;;;5.85;;
67195;SDS011;54122;53.538;49.366;2022-12-16T07:35:18;18.10;;;5.32;;
67195;SDS011;54122;53.538;49.366;2022-12-16T07:38:08;20.17;;;6.03;;
67195;SDS011;54122;53.538;49.366;2022-12-16T07:40:58;12.30;;;3.95;;
67195;SDS011;54122;53.538;49.366;2022-12-16T07:43:47;18.38;;;5.80;;
67195;SDS011;54122;53.538;49.366;2022-12-16T07:46:37;18.05;;;5.10;;
67195;SDS011;54122;53.538;49.366;2022-12-16T07:49:27;15.50;;;5.43;;
67195;SDS011;54122;53.538;49.366;2022-12-16T07:52:16;14.82;;;4.68;;
67195;SDS011;54122;53.538;49.366;2022-12-16T07:55:06;14.60;;;4.85;;
67195;SDS011;54122;53.538;49.366;2022-12-16T07:57:56;18.45;;;6.22;;
67195;SDS011;54122;53.538;49.366;2022-12-16T08:00:46;14.70;;;5.57;;
67195;SDS011;54122;53.538;49.366;2022-12-16T08:03:35;16.70;;;6.72;;
67195;SDS011;54122;53.538;49.366;2022-12-16T08:06:25;15.63;;;5.78;;
67195;SDS011;54122;53.538;49.366;2022-12-16T08:09:17;17.52;;;6.10;;
67195;SDS011;54122;53.538;49.366;2022-12-16T08:12:06;14.35;;;6.28;;
67195;SDS011;54122;53.538;49.366;2022-12-16T08:15:13;15.68;;;5.97;;
67195;SDS011;54122;53.538;49.366;2022-12-16T08:18:03;17.20;;;6.30;;
67195;SDS011;54122;53.538;49.366;2022-12-16T08:20:53;15.90;;;6.13;;
67195;SDS011;54122;53.538;49.366;2022-12-16T08:23:43;15.65;;;5.78;;
67195;SDS011;54122;53.538;49.366;2022-12-16T08:26:33;18.85;;;7.60;;
67195;SDS011;54122;53.538;49.366;2022-12-16T08:29:23;19.23;;;6.65;;
67195;SDS011;54122;53.538;49.366;2022-12-16T08:32:13;13.35;;;6.00;;
67195;SDS011;54122;53.538;49.366;2022-12-16T08:35:04;23.92;;;8.02;;
67195;SDS011;54122;53.538;49.366;2022-12-16T08:37:54;22.58;;;6.50;;
67195;SDS011;54122;53.538;49.366;2022-12-16T08:40:45;16.38;;;5.70;;
67195;SDS011;54122;53.538;49.366;2022-12-16T08:43:35;22.50;;;6.63;;
67195;SDS011;54122;53.538;49.366;2022-12-16T08:46:25;12.18;;;6.03;;
67195;SDS011;54122;53.538;49.366;2022-12-16T08:49:15;23.77;;;6.80;;
67195;SDS011;54122;53.538;49.366;2022-12-16T08:52:05;15.25;;;5.60;;
67195;SDS011;54122;53.538;49.366;2022-12-16T08:54:54;16.23;;;6.55;;
67195;SDS011;54122;53.538;49.366;2022-12-16T08:57:51;23.10;;;6.38;;
67195;SDS011;54122;53.538;49.366;2022-12-16T09:00:42;14.23;;;5.97;;
67195;SDS011;54122;53.538;49.366;2022-12-16T09:03:31;19.38;;;6.22;;
67195;SDS011;54122;53.538;49.366;2022-12-16T09:06:21;19.90;;;7.20;;
67195;SDS011;54122;53.538;49.366;2022-12-16T09:09:11;20.17;;;6.80;;
67195;SDS011;54122;53.538;49.366;2022-12-16T09:12:01;17.50;;;6.70;;
67195;SDS011;54122;53.538;49.366;2022-12-16T09:14:51;22.15;;;7.22;;
67195;SDS011;54122;53.538;49.366;2022-12-16T09:17:41;17.20;;;7.38;;
67195;SDS011;54122;53.538;49.366;2022-12-16T09:20:30;21.42;;;7.03;;
67195;SDS011;54122;53.538;49.366;2022-12-16T09:23:20;18.00;;;7.25;;
67195;SDS011;54122;53.538;49.366;2022-12-16T09:26:10;14.43;;;6.22;;
67195;SDS011;54122;53.538;49.366;2022-12-16T09:29:00;23.27;;;7.07;;
67195;SDS011;54122;53.538;49.366;2022-12-16T09:31:50;15.82;;;6.95;;
67195;SDS011;54122;53.538;49.366;2022-12-16T09:34:39;21.50;;;8.23;;
67195;SDS011;54122;53.538;49.366;2022-12-16T09:37:29;17.67;;;6.93;;
67195;SDS011;54122;53.538;49.366;2022-12-16T09:40:19;19.45;;;7.15;;
67195;SDS011;54122;53.538;49.366;2022-12-16T09:43:16;18.88;;;7.40;;
67195;SDS011;54122;53.538;49.366;2022-12-16T09:52:40;18.92;;;7.70;;
67195;SDS011;54122;53.538;49.366;2022-12-16T09:55:41;21.65;;;7.35;;
67195;SDS011;54122;53.538;49.366;2022-12-16T09:58:40;33.65;;;11.98;;
67195;SDS011;54122;53.538;49.366;2022-12-16T10:01:34;21.00;;;7.43;;
67195;SDS011;54122;53.538;49.366;2022-12-16T10:04:26;28.67;;;8.25;;
67195;SDS011;54122;53.538;49.366;2022-12-16T10:07:17;21.25;;;7.65;;
67195;SDS011;54122;53.538;49.366;2022-12-16T10:10:20;28.42;;;8.88;;
67195;SDS011;54122;53.538;49.366;2022-12-16T10:19:32;15.23;;;6.85;;
67195;SDS011;54122;53.538;49.366;2022-12-16T10:25:41;18.20;;;6.80;;
67195;SDS011;54122;53.538;49.366;2022-12-16T10:28:44;21.05;;;7.65;;
67195;SDS011;54122;53.538;49.366;2022-12-16T10:31:36;19.73;;;7.20;;
67195;SDS011;54122;53.538;49.366;2022-12-16T10:34:28;17.17;;;6.82;;
67195;SDS011;54122;53.538;49.366;2022-12-16T10:40:14;17.08;;;7.18;;
67195;SDS011;54122;53.538;49.366;2022-12-16T10:43:12;19.80;;;7.25;;
67195;SDS011;54122;53.538;49.366;2022-12-16T10:46:10;17.67;;;6.78;;
67195;SDS011;54122;53.538;49.366;2022-12-16T10:49:12;16.00;;;6.63;;
67195;SDS011;54122;53.538;49.366;2022-12-16T10:52:04;22.38;;;9.13;;
67195;SDS011;54122;53.538;49.366;2022-12-16T10:57:55;20.52;;;7.10;;
67195;SDS011;54122;53.538;49.366;2022-12-16T11:00:54;24.30;;;9.15;;
67195;SDS011;54122;53.538;49.366;2022-12-16T11:03:44;20.98;;;7.80;;
67195;SDS011;54122;53.538;49.366;2022-12-16T11:06:35;19.58;;;7.15;;
67195;SDS011;54122;53.538;49.366;2022-12-16T11:09:31;24.15;;;7.55;;
67195;SDS011;54122;53.538;49.366;2022-12-16T11:12:29;22.45;;;7.78;;
67195;SDS011;54122;53.538;49.366;2022-12-16T11:15:28;17.65;;;7.28;;
67195;SDS011;54122;53.538;49.366;2022-12-16T11:18:20;19.80;;;7.65;;
67195;SDS011;54122;53.538;49.366;2022-12-16T11:21:15;14.95;;;5.72;;
67195;SDS011;54122;53.538;49.366;2022-12-16T11:24:18;30.55;;;5.93;;
67195;SDS011;54122;53.538;49.366;2022-12-16T11:27:13;19.70;;;6.55;;
67195;SDS011;54122;53.538;49.366;2022-12-16T11:33:24;18.50;;;6.28;;
67195;SDS011;54122;53.538;49.366;2022-12-16T11:36:17;18.45;;;6.47;;
67195;SDS011;54122;53.538;49.366;2022-12-16T11:39:18;18.40;;;6.80;;
67195;SDS011;54122;53.538;49.366;2022-12-16T11:42:13;25.20;;;7.40;;
67195;SDS011;54122;53.538;49.366;2022-12-16T11:45:18;22.33;;;7.90;;
67195;SDS011;54122;53.538;49.366;2022-12-16T11:48:24;23.13;;;7.75;;
67195;SDS011;54122;53.538;49.366;2022-12-16T11:51:45;20.65;;;7.90;;
67195;SDS011;54122;53.538;49.366;2022-12-16T11:55:33;22.20;;;8.18;;
67195;SDS011;54122;53.538;49.366;2022-12-16T11:58:08;23.27;;;8.20;;
67195;SDS011;54122;53.538;49.366;2022-12-16T12:01:08;19.83;;;8.60;;
67195;SDS011;54122;53.538;49.366;2022-12-16T12:04:04;19.80;;;8.50;;
67195;SDS011;54122;53.538;49.366;2022-12-16T12:07:00;21.55;;;7.65;;
67195;SDS011;54122;53.538;49.366;2022-12-16T12:12:56;26.25;;;8.45;;
67195;SDS011;54122;53.538;49.366;2022-12-16T12:16:08;17.77;;;6.65;;
67195;SDS011;54122;53.538;49.366;2022-12-16T12:19:09;19.90;;;7.18;;
67195;SDS011;54122;53.538;49.366;2022-12-16T12:22:26;17.52;;;7.10;;
67195;SDS011;54122;53.538;49.366;2022-12-16T12:28:39;17.90;;;7.17;;
67195;SDS011;54122;53.538;49.366;2022-12-16T12:34:52;18.33;;;7.10;;
67195;SDS011;54122;53.538;49.366;2022-12-16T12:41:26;22.33;;;7.40;;
67195;SDS011;54122;53.538;49.366;2022-12-16T12:47:35;21.45;;;8.13;;
67195;SDS011;54122;53.538;49.366;2022-12-16T12:50:38;16.73;;;6.97;;
67195;SDS011;54122;53.538;49.366;2022-12-16T12:54:08;20.95;;;8.00;;
67195;SDS011;54122;53.538;49.366;2022-12-16T12:57:05;14.43;;;5.70;;
67195;SDS011;54122;53.538;49.366;2022-12-16T13:03:17;17.73;;;7.88;;
67195;SDS011;54122;53.538;49.366;2022-12-16T13:06:23;16.98;;;6.90;;
67195;SDS011;54122;53.538;49.366;2022-12-16T13:09:32;23.23;;;12.23;;
67195;SDS011;54122;53.538;49.366;2022-12-16T13:12:25;18.50;;;6.60;;
67195;SDS011;54122;53.538;49.366;2022-12-16T13:15:33;21.15;;;7.18;;
67195;SDS011;54122;53.538;49.366;2022-12-16T13:18:26;21.42;;;9.02;;
67195;SDS011;54122;53.538;49.366;2022-12-16T13:27:15;19.17;;;7.05;;
67195;SDS011;54122;53.538;49.366;2022-12-16T13:33:00;23.02;;;9.80;;
67195;SDS011;54122;53.538;49.366;2022-12-16T13:35:55;30.85;;;8.98;;
67195;SDS011;54122;53.538;49.366;2022-12-16T13:50:37;20.90;;;7.35;;
67195;SDS011;54122;53.538;49.366;2022-12-16T13:53:40;19.77;;;7.15;;
67195;SDS011;54122;53.538;49.366;2022-12-16T13:56:36;15.88;;;7.80;;
67195;SDS011;54122;53.538;49.366;2022-12-16T13:59:29;21.23;;;7.10;;
67195;SDS011;54122;53.538;49.366;2022-12-16T14:08:17;21.50;;;8.85;;
67195;SDS011;54122;53.538;49.366;2022-12-16T14:11:17;18.52;;;6.45;;
67195;SDS011;54122;53.538;49.366;2022-12-16T14:14:16;30.00;;;7.90;;
67195;SDS011;54122;53.538;49.366;2022-12-16T14:17:16;17.85;;;8.30;;
67195;SDS011;54122;53.538;49.366;2022-12-16T14:20:40;19.80;;;8.70;;
67195;SDS011;54122;53.538;49.366;2022-12-16T14:23:43;19.85;;;8.93;;
67195;SDS011;54122;53.538;49.366;2022-12-16T14:26:34;22.20;;;7.88;;
67195;SDS011;54122;53.538;49.366;2022-12-16T14:32:30;20.58;;;7.57;;
67195;SDS011;54122;53.538;49.366;2022-12-16T14:35:22;26.42;;;9.95;;
67195;SDS011;54122;53.538;49.366;2022-12-16T14:38:25;19.95;;;8.60;;
67195;SDS011;54122;53.538;49.366;2022-12-16T14:44:22;18.50;;;7.78;;
67195;SDS011;54122;53.538;49.366;2022-12-16T14:47:17;37.95;;;13.23;;
67195;SDS011;54122;53.538;49.366;2022-12-16T14:50:18;39.08;;;13.52;;
67195;SDS011;54122;53.538;49.366;2022-12-16T14:59:13;22.25;;;7.60;;
67195;SDS011;54122;53.538;49.366;2022-12-16T15:02:13;16.10;;;6.95;;
67195;SDS011;54122;53.538;49.366;2022-12-16T15:05:14;28.00;;;9.20;;
67195;SDS011;54122;53.538;49.366;2022-12-16T15:08:04;18.92;;;7.63;;
67195;SDS011;54122;53.538;49.366;2022-12-16T15:10:55;18.95;;;8.43;;
67195;SDS011;54122;53.538;49.366;2022-12-16T15:13:45;24.67;;;8.90;;
67195;SDS011;54122;53.538;49.366;2022-12-16T15:16:41;18.05;;;7.38;;
67195;SDS011;54122;53.538;49.366;2022-12-16T15:19:37;22.35;;;8.60;;
67195;SDS011;54122;53.538;49.366;2022-12-16T15:22:43;31.70;;;9.45;;
67195;SDS011;54122;53.538;49.366;2022-12-16T15:25:36;22.77;;;8.48;;
67195;SDS011;54122;53.538;49.366;2022-12-16T15:28:35;23.05;;;9.27;;
67195;SDS011;54122;53.538;49.366;2022-12-16T15:31:31;21.10;;;8.68;;
67195;SDS011;54122;53.538;49.366;2022-12-16T15:40:18;24.77;;;8.23;;
67195;SDS011;54122;53.538;49.366;2022-12-16T15:43:30;22.83;;;9.75;;
67195;SDS011;54122;53.538;49.366;2022-12-16T15:46:27;35.20;;;14.15;;
67195;SDS011;54122;53.538;49.366;2022-12-16T15:49:20;19.45;;;9.43;;
67195;SDS011;54122;53.538;49.366;2022-12-16T15:55:22;33.22;;;11.40;;
67195;SDS011;54122;53.538;49.366;2022-12-16T15:58:33;19.85;;;7.80;;
67195;SDS011;54122;53.538;49.366;2022-12-16T16:01:25;19.73;;;7.93;;
67195;SDS011;54122;53.538;49.366;2022-12-16T16:07:17;26.30;;;10.50;;
67195;SDS011;54122;53.538;49.366;2022-12-16T16:10:16;20.00;;;7.50;;
67195;SDS011;54122;53.538;49.366;2022-12-16T16:13:08;24.70;;;9.25;;
67195;SDS011;54122;53.538;49.366;2022-12-16T16:15:58;20.80;;;9.23;;
67195;SDS011;54122;53.538;49.366;2022-12-16T16:18:48;27.38;;;12.38;;
67195;SDS011;54122;53.538;49.366;2022-12-16T16:21:38;33.55;;;14.18;;
67195;SDS011;54122;53.538;49.366;2022-12-16T16:24:28;30.08;;;9.98;;
67195;SDS011;54122;53.538;49.366;2022-12-16T16:27:17;20.00;;;8.45;;
67195;SDS011;54122;53.538;49.366;2022-12-16T16:30:09;23.90;;;8.50;;
67195;SDS011;54122;53.538;49.366;2022-12-16T16:32:59;29.33;;;9.88;;
67195;SDS011;54122;53.538;49.366;2022-12-16T16:35:49;53.53;;;19.83;;
67195;SDS011;54122;53.538;49.366;2022-12-16T16:38:39;37.45;;;15.63;;
67195;SDS011;54122;53.538;49.366;2022-12-16T16:41:29;23.25;;;11.00;;
67195;SDS011;54122;53.538;49.366;2022-12-16T16:44:19;19.60;;;8.57;;
67195;SDS011;54122;53.538;49.366;2022-12-16T16:47:09;31.05;;;9.63;;
67195;SDS011;54122;53.538;49.366;2022-12-16T16:50:05;29.55;;;11.60;;
67195;SDS011;54122;53.538;49.366;2022-12-16T16:53:02;21.20;;;8.45;;
67195;SDS011;54122;53.538;49.366;2022-12-16T16:55:52;26.67;;;8.95;;
67195;SDS011;54122;53.538;49.366;2022-12-16T16:58:47;38.30;;;12.30;;
67195;SDS011;54122;53.538;49.366;2022-12-16T17:01:36;29.50;;;11.55;;
67195;SDS011;54122;53.538;49.366;2022-12-16T17:04:26;22.77;;;9.20;;
67195;SDS011;54122;53.538;49.366;2022-12-16T17:07:16;20.98;;;9.63;;
67195;SDS011;54122;53.538;49.366;2022-12-16T17:10:06;23.58;;;9.55;;
67195;SDS011;54122;53.538;49.366;2022-12-16T17:12:56;21.88;;;8.82;;
67195;SDS011;54122;53.538;49.366;2022-12-16T17:15:46;23.27;;;10.07;;
67195;SDS011;54122;53.538;49.366;2022-12-16T17:18:36;23.45;;;9.68;;
67195;SDS011;54122;53.538;49.366;2022-12-16T17:21:31;28.55;;;9.68;;
67195;SDS011;54122;53.538;49.366;2022-12-16T17:24:21;22.45;;;9.40;;
67195;SDS011;54122;53.538;49.366;2022-12-16T17:27:18;23.20;;;8.15;;
67195;SDS011;54122;53.538;49.366;2022-12-16T17:30:13;28.17;;;11.02;;
67195;SDS011;54122;53.538;49.366;2022-12-16T17:33:09;26.58;;;9.77;;
67195;SDS011;54122;53.538;49.366;2022-12-16T17:36:00;29.40;;;11.77;;
67195;SDS011;54122;53.538;49.366;2022-12-16T17:38:50;21.50;;;8.10;;
67195;SDS011;54122;53.538;49.366;2022-12-16T17:41:40;29.15;;;10.98;;
67195;SDS011;54122;53.538;49.366;2022-12-16T17:44:32;29.77;;;11.48;;
67195;SDS011;54122;53.538;49.366;2022-12-16T17:47:22;24.27;;;8.77;;
67195;SDS011;54122;53.538;49.366;2022-12-16T17:50:12;21.30;;;9.85;;
67195;SDS011;54122;53.538;49.366;2022-12-16T17:53:02;26.48;;;11.93;;
67195;SDS011;54122;53.538;49.366;2022-12-16T17:55:52;24.95;;;10.20;;
67195;SDS011;54122;53.538;49.366;2022-12-16T17:58:42;25.48;;;8.88;;
67195;SDS011;54122;53.538;49.366;2022-12-16T18:01:32;22.98;;;9.48;;
67195;SDS011;54122;53.538;49.366;2022-12-16T18:04:22;24.73;;;10.82;;
67195;SDS011;54122;53.538;49.366;2022-12-16T18:07:11;31.90;;;12.02;;
67195;SDS011;54122;53.538;49.366;2022-12-16T18:10:02;33.33;;;13.70;;
67195;SDS011;54122;53.538;49.366;2022-12-16T18:12:52;21.23;;;10.02;;
67195;SDS011;54122;53.538;49.366;2022-12-16T18:15:49;23.88;;;11.05;;
67195;SDS011;54122;53.538;49.366;2022-12-16T18:18:40;20.50;;;9.52;;
67195;SDS011;54122;53.538;49.366;2022-12-16T18:21:30;19.10;;;8.70;;
67195;SDS011;54122;53.538;49.366;2022-12-16T18:24:19;23.42;;;10.77;;
67195;SDS011;54122;53.538;49.366;2022-12-16T18:27:09;19.20;;;9.60;;
67195;SDS011;54122;53.538;49.366;2022-12-16T18:29:59;23.13;;;9.82;;
67195;SDS011;54122;53.538;49.366;2022-12-16T18:32:49;24.55;;;9.13;;
67195;SDS011;54122;53.538;49.366;2022-12-16T18:35:39;22.88;;;9.23;;